sensor_id;sensor_type;location;lat;lon;timestamp;P1;durP1;ratioP1;P2;durP2;ratioP2
66633;SDS011;53546;52.184;5.596;2023-03-03T00:01:20;4.20;;;3.25;;
66633;SDS011;53546;52.184;5.596;2023-03-03T00:03:49;4.95;;;3.58;;
66633;SDS011;53546;52.184;5.596;2023-03-03T00:06:15;3.83;;;3.28;;
66633;SDS011;53546;52.184;5.596;2023-03-03T00:08:40;4.30;;;3.60;;
66633;SDS011;53546;52.184;5.596;2023-03-03T00:11:06;5.15;;;3.88;;
66633;SDS011;53546;52.184;5.596;2023-03-03T00:13:37;3.67;;;3.15;;
66633;SDS011;53546;52.184;5.596;2023-03-03T00:16:10;3.58;;;2.95;;
66633;SDS011;53546;52.184;5.596;2023-03-03T00:18:41;3.42;;;3.13;;
66633;SDS011;53546;52.184;5.596;2023-03-03T00:21:21;3.50;;;3.00;;
66633;SDS011;53546;52.184;5.596;2023-03-03T00:23:46;3.38;;;3.08;;
66633;SDS011;53546;52.184;5.596;2023-03-03T00:26:33;3.42;;;3.08;;
66633;SDS011;53546;52.184;5.596;2023-03-03T00:29:00;3.35;;;2.80;;
66633;SDS011;53546;52.184;5.596;2023-03-03T00:31:31;6.32;;;3.15;;
66633;SDS011;53546;52.184;5.596;2023-03-03T00:34:01;3.53;;;2.97;;
66633;SDS011;53546;52.184;5.596;2023-03-03T00:36:52;4.00;;;3.00;;
66633;SDS011;53546;52.184;5.596;2023-03-03T00:41:53;3.60;;;2.95;;
66633;SDS011;53546;52.184;5.596;2023-03-03T00:49:59;3.25;;;2.95;;
66633;SDS011;53546;52.184;5.596;2023-03-03T00:52:44;3.50;;;2.70;;
66633;SDS011;53546;52.184;5.596;2023-03-03T00:55:10;5.05;;;2.80;;
66633;SDS011;53546;52.184;5.596;2023-03-03T00:57:36;4.38;;;3.10;;
66633;SDS011;53546;52.184;5.596;2023-03-03T01:00:01;3.20;;;2.85;;
66633;SDS011;53546;52.184;5.596;2023-03-03T01:02:28;3.35;;;2.88;;
66633;SDS011;53546;52.184;5.596;2023-03-03T01:04:53;3.22;;;2.60;;
66633;SDS011;53546;52.184;5.596;2023-03-03T01:07:21;2.95;;;2.60;;
66633;SDS011;53546;52.184;5.596;2023-03-03T01:09:50;3.05;;;2.70;;
66633;SDS011;53546;52.184;5.596;2023-03-03T01:12:16;3.80;;;3.08;;
66633;SDS011;53546;52.184;5.596;2023-03-03T01:14:41;3.00;;;2.70;;
66633;SDS011;53546;52.184;5.596;2023-03-03T01:17:09;3.25;;;2.90;;
66633;SDS011;53546;52.184;5.596;2023-03-03T01:19:34;3.30;;;3.00;;
66633;SDS011;53546;52.184;5.596;2023-03-03T01:22:00;3.28;;;2.92;;
66633;SDS011;53546;52.184;5.596;2023-03-03T01:24:25;2.83;;;2.53;;
66633;SDS011;53546;52.184;5.596;2023-03-03T01:26:51;3.00;;;2.70;;
66633;SDS011;53546;52.184;5.596;2023-03-03T01:29:16;3.00;;;2.70;;
66633;SDS011;53546;52.184;5.596;2023-03-03T01:31:41;2.90;;;2.60;;
66633;SDS011;53546;52.184;5.596;2023-03-03T01:34:07;3.33;;;2.95;;
66633;SDS011;53546;52.184;5.596;2023-03-03T01:36:32;6.03;;;2.90;;
66633;SDS011;53546;52.184;5.596;2023-03-03T01:38:58;3.53;;;2.92;;
66633;SDS011;53546;52.184;5.596;2023-03-03T01:41:27;3.65;;;3.00;;
66633;SDS011;53546;52.184;5.596;2023-03-03T01:43:54;3.30;;;2.60;;
66633;SDS011;53546;52.184;5.596;2023-03-03T01:48:49;3.10;;;2.78;;
66633;SDS011;53546;52.184;5.596;2023-03-03T01:53:55;4.00;;;2.90;;
66633;SDS011;53546;52.184;5.596;2023-03-03T01:56:23;4.65;;;2.88;;
66633;SDS011;53546;52.184;5.596;2023-03-03T01:58:50;3.20;;;2.85;;
66633;SDS011;53546;52.184;5.596;2023-03-03T02:01:19;3.65;;;2.85;;
66633;SDS011;53546;52.184;5.596;2023-03-03T02:03:46;3.65;;;3.10;;
66633;SDS011;53546;52.184;5.596;2023-03-03T02:06:12;3.28;;;2.70;;
66633;SDS011;53546;52.184;5.596;2023-03-03T02:08:43;4.35;;;2.80;;
66633;SDS011;53546;52.184;5.596;2023-03-03T02:11:16;5.05;;;2.92;;
66633;SDS011;53546;52.184;5.596;2023-03-03T02:13:42;3.28;;;2.65;;
66633;SDS011;53546;52.184;5.596;2023-03-03T02:16:08;3.03;;;2.63;;
66633;SDS011;53546;52.184;5.596;2023-03-03T02:18:33;4.78;;;2.90;;
66633;SDS011;53546;52.184;5.596;2023-03-03T02:26:17;3.17;;;2.88;;
66633;SDS011;53546;52.184;5.596;2023-03-03T02:28:47;3.80;;;2.88;;
66633;SDS011;53546;52.184;5.596;2023-03-03T02:31:14;3.17;;;2.85;;
66633;SDS011;53546;52.184;5.596;2023-03-03T02:33:41;3.65;;;2.90;;
66633;SDS011;53546;52.184;5.596;2023-03-03T02:36:14;4.45;;;2.80;;
66633;SDS011;53546;52.184;5.596;2023-03-03T02:38:50;3.20;;;2.90;;
66633;SDS011;53546;52.184;5.596;2023-03-03T02:44:14;3.13;;;2.58;;
66633;SDS011;53546;52.184;5.596;2023-03-03T02:46:42;3.45;;;3.00;;
66633;SDS011;53546;52.184;5.596;2023-03-03T02:49:09;3.92;;;3.00;;
66633;SDS011;53546;52.184;5.596;2023-03-03T02:51:36;4.07;;;3.13;;
66633;SDS011;53546;52.184;5.596;2023-03-03T02:54:02;3.20;;;2.88;;
66633;SDS011;53546;52.184;5.596;2023-03-03T02:56:28;5.03;;;2.88;;
66633;SDS011;53546;52.184;5.596;2023-03-03T02:58:53;3.08;;;2.70;;
66633;SDS011;53546;52.184;5.596;2023-03-03T03:01:19;3.53;;;2.80;;
66633;SDS011;53546;52.184;5.596;2023-03-03T03:03:44;3.50;;;2.90;;
66633;SDS011;53546;52.184;5.596;2023-03-03T03:06:10;4.10;;;3.00;;
66633;SDS011;53546;52.184;5.596;2023-03-03T03:08:35;6.78;;;2.92;;
66633;SDS011;53546;52.184;5.596;2023-03-03T03:11:01;4.40;;;2.88;;
66633;SDS011;53546;52.184;5.596;2023-03-03T03:13:27;3.67;;;3.10;;
66633;SDS011;53546;52.184;5.596;2023-03-03T03:15:54;3.65;;;3.05;;
66633;SDS011;53546;52.184;5.596;2023-03-03T03:18:19;3.40;;;3.00;;
66633;SDS011;53546;52.184;5.596;2023-03-03T03:20:45;3.20;;;2.90;;
66633;SDS011;53546;52.184;5.596;2023-03-03T03:23:10;3.60;;;3.00;;
66633;SDS011;53546;52.184;5.596;2023-03-03T03:25:36;3.33;;;2.88;;
66633;SDS011;53546;52.184;5.596;2023-03-03T03:28:10;3.47;;;3.15;;
66633;SDS011;53546;52.184;5.596;2023-03-03T03:30:39;3.40;;;3.10;;
66633;SDS011;53546;52.184;5.596;2023-03-03T03:33:05;3.10;;;2.80;;
66633;SDS011;53546;52.184;5.596;2023-03-03T03:35:32;3.53;;;2.90;;
66633;SDS011;53546;52.184;5.596;2023-03-03T03:37:58;3.72;;;3.05;;
66633;SDS011;53546;52.184;5.596;2023-03-03T03:40:23;3.90;;;2.75;;
66633;SDS011;53546;52.184;5.596;2023-03-03T03:42:50;3.83;;;2.75;;
66633;SDS011;53546;52.184;5.596;2023-03-03T03:45:16;4.20;;;2.90;;
66633;SDS011;53546;52.184;5.596;2023-03-03T03:47:41;4.07;;;2.80;;
66633;SDS011;53546;52.184;5.596;2023-03-03T03:50:07;3.72;;;2.97;;
66633;SDS011;53546;52.184;5.596;2023-03-03T03:52:33;4.13;;;3.20;;
66633;SDS011;53546;52.184;5.596;2023-03-03T03:54:59;3.33;;;3.00;;
66633;SDS011;53546;52.184;5.596;2023-03-03T03:57:24;3.42;;;2.90;;
66633;SDS011;53546;52.184;5.596;2023-03-03T03:59:50;3.55;;;2.92;;
66633;SDS011;53546;52.184;5.596;2023-03-03T04:02:15;3.65;;;3.05;;
66633;SDS011;53546;52.184;5.596;2023-03-03T04:04:41;4.07;;;3.03;;
66633;SDS011;53546;52.184;5.596;2023-03-03T04:07:06;4.18;;;2.80;;
66633;SDS011;53546;52.184;5.596;2023-03-03T04:09:32;2.90;;;2.63;;
66633;SDS011;53546;52.184;5.596;2023-03-03T04:11:57;4.22;;;2.85;;
66633;SDS011;53546;52.184;5.596;2023-03-03T04:14:23;3.50;;;3.00;;
66633;SDS011;53546;52.184;5.596;2023-03-03T04:16:48;3.38;;;2.88;;
66633;SDS011;53546;52.184;5.596;2023-03-03T04:19:14;3.30;;;2.75;;
66633;SDS011;53546;52.184;5.596;2023-03-03T04:21:39;4.20;;;3.15;;
66633;SDS011;53546;52.184;5.596;2023-03-03T04:24:04;3.35;;;2.80;;
66633;SDS011;53546;52.184;5.596;2023-03-03T04:26:30;3.28;;;2.88;;
66633;SDS011;53546;52.184;5.596;2023-03-03T04:28:56;3.50;;;2.78;;
66633;SDS011;53546;52.184;5.596;2023-03-03T04:31:22;4.07;;;3.38;;
66633;SDS011;53546;52.184;5.596;2023-03-03T04:33:49;4.28;;;3.33;;
66633;SDS011;53546;52.184;5.596;2023-03-03T04:36:15;4.78;;;3.38;;
66633;SDS011;53546;52.184;5.596;2023-03-03T04:38:40;3.45;;;3.08;;
66633;SDS011;53546;52.184;5.596;2023-03-03T04:41:06;4.10;;;3.33;;
66633;SDS011;53546;52.184;5.596;2023-03-03T04:43:31;3.67;;;2.95;;
66633;SDS011;53546;52.184;5.596;2023-03-03T04:45:57;3.20;;;2.80;;
66633;SDS011;53546;52.184;5.596;2023-03-03T04:48:22;3.92;;;3.05;;
66633;SDS011;53546;52.184;5.596;2023-03-03T04:50:47;3.97;;;3.10;;
66633;SDS011;53546;52.184;5.596;2023-03-03T04:53:13;3.17;;;2.88;;
66633;SDS011;53546;52.184;5.596;2023-03-03T04:55:39;3.40;;;3.03;;
66633;SDS011;53546;52.184;5.596;2023-03-03T04:58:05;3.50;;;2.95;;
66633;SDS011;53546;52.184;5.596;2023-03-03T05:00:30;3.63;;;3.20;;
66633;SDS011;53546;52.184;5.596;2023-03-03T05:02:56;4.95;;;3.20;;
66633;SDS011;53546;52.184;5.596;2023-03-03T05:05:22;4.50;;;3.38;;
66633;SDS011;53546;52.184;5.596;2023-03-03T05:07:47;3.70;;;2.97;;
66633;SDS011;53546;52.184;5.596;2023-03-03T05:10:13;4.18;;;3.45;;
66633;SDS011;53546;52.184;5.596;2023-03-03T05:12:38;3.67;;;3.28;;
66633;SDS011;53546;52.184;5.596;2023-03-03T05:15:04;3.13;;;2.67;;
66633;SDS011;53546;52.184;5.596;2023-03-03T05:17:30;6.32;;;2.95;;
66633;SDS011;53546;52.184;5.596;2023-03-03T05:19:56;3.50;;;2.80;;
66633;SDS011;53546;52.184;5.596;2023-03-03T05:22:21;3.22;;;2.80;;
66633;SDS011;53546;52.184;5.596;2023-03-03T05:24:47;3.75;;;2.75;;
66633;SDS011;53546;52.184;5.596;2023-03-03T05:27:13;3.85;;;3.00;;
66633;SDS011;53546;52.184;5.596;2023-03-03T05:29:39;3.95;;;2.90;;
66633;SDS011;53546;52.184;5.596;2023-03-03T05:32:05;4.28;;;3.08;;
66633;SDS011;53546;52.184;5.596;2023-03-03T05:34:30;3.55;;;2.75;;
66633;SDS011;53546;52.184;5.596;2023-03-03T05:36:56;3.20;;;2.78;;
66633;SDS011;53546;52.184;5.596;2023-03-03T05:39:21;3.58;;;2.85;;
66633;SDS011;53546;52.184;5.596;2023-03-03T05:41:47;3.10;;;2.53;;
66633;SDS011;53546;52.184;5.596;2023-03-03T05:44:13;4.75;;;2.90;;
66633;SDS011;53546;52.184;5.596;2023-03-03T05:46:41;3.30;;;3.00;;
66633;SDS011;53546;52.184;5.596;2023-03-03T05:49:07;5.03;;;3.03;;
66633;SDS011;53546;52.184;5.596;2023-03-03T05:51:32;6.88;;;2.70;;
66633;SDS011;53546;52.184;5.596;2023-03-03T05:53:58;3.90;;;2.67;;
66633;SDS011;53546;52.184;5.596;2023-03-03T05:56:23;4.28;;;2.63;;
66633;SDS011;53546;52.184;5.596;2023-03-03T05:58:49;3.20;;;2.30;;
66633;SDS011;53546;52.184;5.596;2023-03-03T06:01:14;3.35;;;2.60;;
66633;SDS011;53546;52.184;5.596;2023-03-03T06:03:39;3.70;;;2.70;;
66633;SDS011;53546;52.184;5.596;2023-03-03T06:06:05;3.30;;;2.47;;
66633;SDS011;53546;52.184;5.596;2023-03-03T06:08:31;3.47;;;2.67;;
66633;SDS011;53546;52.184;5.596;2023-03-03T06:10:57;5.50;;;2.63;;
66633;SDS011;53546;52.184;5.596;2023-03-03T06:13:22;3.38;;;2.47;;
66633;SDS011;53546;52.184;5.596;2023-03-03T06:15:47;3.17;;;2.70;;
66633;SDS011;53546;52.184;5.596;2023-03-03T06:18:13;3.40;;;2.55;;
66633;SDS011;53546;52.184;5.596;2023-03-03T06:20:38;3.50;;;2.70;;
66633;SDS011;53546;52.184;5.596;2023-03-03T06:23:04;3.78;;;2.70;;
66633;SDS011;53546;52.184;5.596;2023-03-03T06:25:29;2.75;;;2.45;;
66633;SDS011;53546;52.184;5.596;2023-03-03T06:27:55;3.33;;;2.70;;
66633;SDS011;53546;52.184;5.596;2023-03-03T06:30:21;3.13;;;2.72;;
66633;SDS011;53546;52.184;5.596;2023-03-03T06:32:46;2.95;;;2.50;;
66633;SDS011;53546;52.184;5.596;2023-03-03T06:35:11;3.05;;;2.75;;
66633;SDS011;53546;52.184;5.596;2023-03-03T06:37:37;3.33;;;2.58;;
66633;SDS011;53546;52.184;5.596;2023-03-03T06:40:03;3.85;;;2.90;;
66633;SDS011;53546;52.184;5.596;2023-03-03T06:42:29;3.38;;;2.85;;
66633;SDS011;53546;52.184;5.596;2023-03-03T06:44:55;3.20;;;2.60;;
66633;SDS011;53546;52.184;5.596;2023-03-03T06:47:20;5.03;;;3.08;;
66633;SDS011;53546;52.184;5.596;2023-03-03T06:49:46;3.90;;;3.03;;
66633;SDS011;53546;52.184;5.596;2023-03-03T06:52:16;3.35;;;2.67;;
66633;SDS011;53546;52.184;5.596;2023-03-03T06:54:44;3.27;;;2.50;;
66633;SDS011;53546;52.184;5.596;2023-03-03T06:57:15;8.43;;;2.80;;
66633;SDS011;53546;52.184;5.596;2023-03-03T06:59:52;3.13;;;2.50;;
66633;SDS011;53546;52.184;5.596;2023-03-03T07:02:18;5.50;;;2.90;;
66633;SDS011;53546;52.184;5.596;2023-03-03T07:04:45;8.32;;;2.83;;
66633;SDS011;53546;52.184;5.596;2023-03-03T07:09:39;3.85;;;2.90;;
66633;SDS011;53546;52.184;5.596;2023-03-03T07:12:09;3.35;;;2.63;;
66633;SDS011;53546;52.184;5.596;2023-03-03T07:14:38;7.72;;;3.08;;
66633;SDS011;53546;52.184;5.596;2023-03-03T07:17:16;8.10;;;3.33;;
66633;SDS011;53546;52.184;5.596;2023-03-03T07:19:44;7.38;;;3.40;;
66633;SDS011;53546;52.184;5.596;2023-03-03T07:22:13;6.85;;;3.45;;
66633;SDS011;53546;52.184;5.596;2023-03-03T07:24:40;8.43;;;3.58;;
66633;SDS011;53546;52.184;5.596;2023-03-03T07:29:42;8.88;;;3.20;;
66633;SDS011;53546;52.184;5.596;2023-03-03T07:32:14;7.05;;;2.92;;
66633;SDS011;53546;52.184;5.596;2023-03-03T07:34:52;8.32;;;3.00;;
66633;SDS011;53546;52.184;5.596;2023-03-03T07:37:22;10.77;;;2.85;;
66633;SDS011;53546;52.184;5.596;2023-03-03T07:39:55;5.28;;;2.88;;
66633;SDS011;53546;52.184;5.596;2023-03-03T07:44:47;7.63;;;2.85;;
66633;SDS011;53546;52.184;5.596;2023-03-03T07:47:19;4.05;;;2.60;;
66633;SDS011;53546;52.184;5.596;2023-03-03T07:49:47;4.80;;;2.42;;
66633;SDS011;53546;52.184;5.596;2023-03-03T07:52:24;5.97;;;2.00;;
66633;SDS011;53546;52.184;5.596;2023-03-03T07:54:50;5.10;;;2.53;;
66633;SDS011;53546;52.184;5.596;2023-03-03T07:57:21;7.72;;;2.65;;
66633;SDS011;53546;52.184;5.596;2023-03-03T07:59:59;3.40;;;2.50;;
66633;SDS011;53546;52.184;5.596;2023-03-03T08:02:34;7.63;;;2.85;;
66633;SDS011;53546;52.184;5.596;2023-03-03T08:07:55;7.18;;;2.85;;
66633;SDS011;53546;52.184;5.596;2023-03-03T08:13:21;7.25;;;3.28;;
66633;SDS011;53546;52.184;5.596;2023-03-03T08:18:33;10.20;;;3.75;;
66633;SDS011;53546;52.184;5.596;2023-03-03T08:21:04;6.65;;;2.92;;
66633;SDS011;53546;52.184;5.596;2023-03-03T08:23:37;6.80;;;2.67;;
66633;SDS011;53546;52.184;5.596;2023-03-03T08:26:03;12.82;;;2.85;;
66633;SDS011;53546;52.184;5.596;2023-03-03T08:28:28;14.93;;;3.35;;
66633;SDS011;53546;52.184;5.596;2023-03-03T08:30:54;6.88;;;2.72;;
66633;SDS011;53546;52.184;5.596;2023-03-03T08:33:19;12.57;;;3.45;;
66633;SDS011;53546;52.184;5.596;2023-03-03T08:35:45;10.50;;;4.07;;
66633;SDS011;53546;52.184;5.596;2023-03-03T08:38:12;13.30;;;4.20;;
66633;SDS011;53546;52.184;5.596;2023-03-03T08:40:38;14.93;;;3.40;;
66633;SDS011;53546;52.184;5.596;2023-03-03T08:43:03;8.75;;;3.25;;
66633;SDS011;53546;52.184;5.596;2023-03-03T08:45:29;11.02;;;3.30;;
66633;SDS011;53546;52.184;5.596;2023-03-03T08:47:55;8.75;;;3.03;;
66633;SDS011;53546;52.184;5.596;2023-03-03T08:50:21;6.88;;;3.20;;
66633;SDS011;53546;52.184;5.596;2023-03-03T08:52:46;13.18;;;3.03;;
66633;SDS011;53546;52.184;5.596;2023-03-03T08:55:12;5.75;;;2.97;;
66633;SDS011;53546;52.184;5.596;2023-03-03T08:57:37;4.90;;;2.50;;
66633;SDS011;53546;52.184;5.596;2023-03-03T09:00:04;7.18;;;2.88;;
66633;SDS011;53546;52.184;5.596;2023-03-03T09:02:33;5.25;;;2.42;;
66633;SDS011;53546;52.184;5.596;2023-03-03T09:04:59;6.63;;;2.78;;
66633;SDS011;53546;52.184;5.596;2023-03-03T09:07:24;11.40;;;3.05;;
66633;SDS011;53546;52.184;5.596;2023-03-03T09:09:49;4.30;;;2.47;;
66633;SDS011;53546;52.184;5.596;2023-03-03T09:12:16;7.35;;;2.50;;
66633;SDS011;53546;52.184;5.596;2023-03-03T09:14:43;3.92;;;2.28;;
66633;SDS011;53546;52.184;5.596;2023-03-03T09:17:21;6.38;;;2.40;;
66633;SDS011;53546;52.184;5.596;2023-03-03T09:19:50;5.07;;;2.30;;
66633;SDS011;53546;52.184;5.596;2023-03-03T09:22:20;5.30;;;2.40;;
66633;SDS011;53546;52.184;5.596;2023-03-03T09:24:48;3.97;;;2.28;;
66633;SDS011;53546;52.184;5.596;2023-03-03T09:27:18;4.60;;;2.03;;
66633;SDS011;53546;52.184;5.596;2023-03-03T09:29:53;4.88;;;2.40;;
66633;SDS011;53546;52.184;5.596;2023-03-03T09:32:36;2.63;;;2.00;;
66633;SDS011;53546;52.184;5.596;2023-03-03T09:38:09;3.30;;;2.15;;
66633;SDS011;53546;52.184;5.596;2023-03-03T09:46:36;5.10;;;2.08;;
66633;SDS011;53546;52.184;5.596;2023-03-03T09:51:45;2.60;;;2.00;;
66633;SDS011;53546;52.184;5.596;2023-03-03T09:57:15;3.42;;;2.33;;
66633;SDS011;53546;52.184;5.596;2023-03-03T10:18:57;3.67;;;2.15;;
66633;SDS011;53546;52.184;5.596;2023-03-03T10:21:43;3.65;;;1.92;;
66633;SDS011;53546;52.184;5.596;2023-03-03T10:24:22;4.70;;;1.80;;
66633;SDS011;53546;52.184;5.596;2023-03-03T10:32:35;5.95;;;2.15;;
66633;SDS011;53546;52.184;5.596;2023-03-03T10:35:30;8.27;;;2.00;;
66633;SDS011;53546;52.184;5.596;2023-03-03T10:45:54;5.97;;;2.33;;
66633;SDS011;53546;52.184;5.596;2023-03-03T11:01:48;8.93;;;1.77;;
66633;SDS011;53546;52.184;5.596;2023-03-03T11:26:02;3.80;;;1.45;;
66633;SDS011;53546;52.184;5.596;2023-03-03T11:31:52;1.60;;;1.30;;
66633;SDS011;53546;52.184;5.596;2023-03-03T11:37:21;2.47;;;1.30;;
66633;SDS011;53546;52.184;5.596;2023-03-03T11:39:52;4.75;;;2.22;;
66633;SDS011;53546;52.184;5.596;2023-03-03T11:42:23;1.63;;;1.33;;
66633;SDS011;53546;52.184;5.596;2023-03-03T11:45:00;3.35;;;1.50;;
66633;SDS011;53546;52.184;5.596;2023-03-03T11:47:36;6.30;;;1.95;;
66633;SDS011;53546;52.184;5.596;2023-03-03T11:52:53;6.15;;;1.40;;
66633;SDS011;53546;52.184;5.596;2023-03-03T11:55:26;3.70;;;1.40;;
66633;SDS011;53546;52.184;5.596;2023-03-03T12:04:14;4.38;;;1.30;;
66633;SDS011;53546;52.184;5.596;2023-03-03T12:12:22;7.22;;;1.42;;
66633;SDS011;53546;52.184;5.596;2023-03-03T12:26:08;1.20;;;1.00;;
66633;SDS011;53546;52.184;5.596;2023-03-03T12:31:33;1.75;;;0.82;;
66633;SDS011;53546;52.184;5.596;2023-03-03T12:42:18;1.95;;;1.25;;
66633;SDS011;53546;52.184;5.596;2023-03-03T12:45:53;1.25;;;1.15;;
66633;SDS011;53546;52.184;5.596;2023-03-03T12:48:08;3.65;;;1.70;;
66633;SDS011;53546;52.184;5.596;2023-03-03T12:50:52;3.55;;;1.80;;
66633;SDS011;53546;52.184;5.596;2023-03-03T12:56:05;5.20;;;2.60;;
66633;SDS011;53546;52.184;5.596;2023-03-03T13:01:39;4.60;;;2.80;;
66633;SDS011;53546;52.184;5.596;2023-03-03T13:04:40;9.13;;;3.20;;
66633;SDS011;53546;52.184;5.596;2023-03-03T13:07:25;4.28;;;2.90;;
66633;SDS011;53546;52.184;5.596;2023-03-03T13:15:38;5.53;;;2.63;;
66633;SDS011;53546;52.184;5.596;2023-03-03T13:26:38;4.18;;;2.33;;
66633;SDS011;53546;52.184;5.596;2023-03-03T13:34:26;4.05;;;2.00;;
66633;SDS011;53546;52.184;5.596;2023-03-03T13:37:07;3.45;;;2.45;;
66633;SDS011;53546;52.184;5.596;2023-03-03T13:42:22;3.13;;;2.40;;
66633;SDS011;53546;52.184;5.596;2023-03-03T13:44:51;4.07;;;2.17;;
66633;SDS011;53546;52.184;5.596;2023-03-03T14:01:00;3.75;;;2.10;;
66633;SDS011;53546;52.184;5.596;2023-03-03T14:03:44;2.97;;;1.90;;
66633;SDS011;53546;52.184;5.596;2023-03-03T14:06:22;2.78;;;1.60;;
66633;SDS011;53546;52.184;5.596;2023-03-03T14:11:29;2.92;;;1.70;;
66633;SDS011;53546;52.184;5.596;2023-03-03T14:19:58;2.80;;;1.67;;
66633;SDS011;53546;52.184;5.596;2023-03-03T14:25:10;5.03;;;1.65;;
66633;SDS011;53546;52.184;5.596;2023-03-03T14:27:38;2.38;;;1.33;;
66633;SDS011;53546;52.184;5.596;2023-03-03T14:33:18;2.53;;;1.17;;
66633;SDS011;53546;52.184;5.596;2023-03-03T14:38:24;2.88;;;1.35;;
66633;SDS011;53546;52.184;5.596;2023-03-03T14:43:40;2.55;;;1.25;;
66633;SDS011;53546;52.184;5.596;2023-03-03T14:46:17;2.63;;;1.33;;
66633;SDS011;53546;52.184;5.596;2023-03-03T14:52:04;1.10;;;1.00;;
66633;SDS011;53546;52.184;5.596;2023-03-03T14:54:36;1.48;;;0.93;;
66633;SDS011;53546;52.184;5.596;2023-03-03T14:57:10;2.55;;;1.20;;
66633;SDS011;53546;52.184;5.596;2023-03-03T14:59:39;1.83;;;1.17;;
66633;SDS011;53546;52.184;5.596;2023-03-03T15:04:40;1.05;;;0.95;;
66633;SDS011;53546;52.184;5.596;2023-03-03T15:09:50;1.58;;;0.80;;
66633;SDS011;53546;52.184;5.596;2023-03-03T15:12:26;3.13;;;1.15;;
66633;SDS011;53546;52.184;5.596;2023-03-03T15:17:37;1.45;;;0.98;;
66633;SDS011;53546;52.184;5.596;2023-03-03T15:23:00;1.02;;;0.90;;
66633;SDS011;53546;52.184;5.596;2023-03-03T15:25:46;1.40;;;0.88;;
66633;SDS011;53546;52.184;5.596;2023-03-03T15:31:08;0.88;;;0.88;;
66633;SDS011;53546;52.184;5.596;2023-03-03T15:39:38;0.93;;;0.90;;
66633;SDS011;53546;52.184;5.596;2023-03-03T16:01:09;1.88;;;0.93;;
66633;SDS011;53546;52.184;5.596;2023-03-03T16:15:14;1.73;;;0.80;;
66633;SDS011;53546;52.184;5.596;2023-03-03T16:23:16;0.75;;;0.50;;
66633;SDS011;53546;52.184;5.596;2023-03-03T16:28:42;0.73;;;0.73;;
66633;SDS011;53546;52.184;5.596;2023-03-03T16:31:12;1.08;;;0.55;;
66633;SDS011;53546;52.184;5.596;2023-03-03T16:36:55;1.17;;;0.70;;
66633;SDS011;53546;52.184;5.596;2023-03-03T16:39:36;1.30;;;0.98;;
66633;SDS011;53546;52.184;5.596;2023-03-03T16:52:36;1.77;;;0.80;;
66633;SDS011;53546;52.184;5.596;2023-03-03T16:55:27;3.17;;;0.73;;
66633;SDS011;53546;52.184;5.596;2023-03-03T17:00:51;1.67;;;0.90;;
66633;SDS011;53546;52.184;5.596;2023-03-03T17:27:49;3.15;;;1.63;;
66633;SDS011;53546;52.184;5.596;2023-03-03T17:30:26;2.08;;;1.08;;
66633;SDS011;53546;52.184;5.596;2023-03-03T17:41:27;1.17;;;0.90;;
66633;SDS011;53546;52.184;5.596;2023-03-03T17:46:57;1.40;;;0.98;;
66633;SDS011;53546;52.184;5.596;2023-03-03T17:52:15;1.80;;;0.98;;
66633;SDS011;53546;52.184;5.596;2023-03-03T18:16:22;3.17;;;1.10;;
66633;SDS011;53546;52.184;5.596;2023-03-03T18:19:06;2.58;;;1.10;;
66633;SDS011;53546;52.184;5.596;2023-03-03T18:21:42;2.97;;;1.23;;
66633;SDS011;53546;52.184;5.596;2023-03-03T18:26:52;2.97;;;1.17;;
66633;SDS011;53546;52.184;5.596;2023-03-03T18:29:19;3.20;;;1.23;;
66633;SDS011;53546;52.184;5.596;2023-03-03T18:42:30;3.97;;;1.27;;
66633;SDS011;53546;52.184;5.596;2023-03-03T18:45:10;2.92;;;1.15;;
66633;SDS011;53546;52.184;5.596;2023-03-03T18:48:14;3.03;;;1.10;;
66633;SDS011;53546;52.184;5.596;2023-03-03T18:55:39;2.47;;;1.33;;
66633;SDS011;53546;52.184;5.596;2023-03-03T19:00:48;2.17;;;1.30;;
66633;SDS011;53546;52.184;5.596;2023-03-03T19:03:32;3.95;;;1.35;;
66633;SDS011;53546;52.184;5.596;2023-03-03T19:06:00;3.75;;;1.38;;
66633;SDS011;53546;52.184;5.596;2023-03-03T19:11:28;3.47;;;1.17;;
66633;SDS011;53546;52.184;5.596;2023-03-03T19:16:45;4.30;;;1.30;;
66633;SDS011;53546;52.184;5.596;2023-03-03T19:19:12;3.25;;;1.80;;
66633;SDS011;53546;52.184;5.596;2023-03-03T19:21:39;3.58;;;1.30;;
66633;SDS011;53546;52.184;5.596;2023-03-03T19:40:33;4.00;;;1.50;;
66633;SDS011;53546;52.184;5.596;2023-03-03T19:46:30;4.60;;;1.48;;
66633;SDS011;53546;52.184;5.596;2023-03-03T19:54:23;3.65;;;1.38;;
66633;SDS011;53546;52.184;5.596;2023-03-03T19:56:54;2.72;;;1.30;;
66633;SDS011;53546;52.184;5.596;2023-03-03T20:07:09;3.47;;;1.40;;
66633;SDS011;53546;52.184;5.596;2023-03-03T20:15:18;4.28;;;1.40;;
66633;SDS011;53546;52.184;5.596;2023-03-03T20:37:00;4.38;;;1.90;;
66633;SDS011;53546;52.184;5.596;2023-03-03T20:50:23;4.80;;;1.60;;
66633;SDS011;53546;52.184;5.596;2023-03-03T20:55:46;4.32;;;1.55;;
66633;SDS011;53546;52.184;5.596;2023-03-03T21:04:21;2.83;;;1.50;;
66633;SDS011;53546;52.184;5.596;2023-03-03T21:06:48;4.45;;;1.65;;
66633;SDS011;53546;52.184;5.596;2023-03-03T21:09:24;6.20;;;1.58;;
66633;SDS011;53546;52.184;5.596;2023-03-03T21:11:58;7.85;;;1.75;;
66633;SDS011;53546;52.184;5.596;2023-03-03T21:16:54;3.95;;;1.77;;
66633;SDS011;53546;52.184;5.596;2023-03-03T21:19:23;3.92;;;1.83;;
66633;SDS011;53546;52.184;5.596;2023-03-03T21:21:50;3.50;;;1.63;;
66633;SDS011;53546;52.184;5.596;2023-03-03T21:24:16;4.45;;;1.98;;
66633;SDS011;53546;52.184;5.596;2023-03-03T21:26:51;4.43;;;1.77;;
66633;SDS011;53546;52.184;5.596;2023-03-03T21:31:53;3.92;;;1.60;;
66633;SDS011;53546;52.184;5.596;2023-03-03T21:34:30;7.10;;;1.63;;
66633;SDS011;53546;52.184;5.596;2023-03-03T21:37:00;6.18;;;1.75;;
66633;SDS011;53546;52.184;5.596;2023-03-03T21:42:07;3.78;;;1.75;;
66633;SDS011;53546;52.184;5.596;2023-03-03T21:47:08;4.50;;;1.88;;
66633;SDS011;53546;52.184;5.596;2023-03-03T21:49:39;4.43;;;1.90;;
66633;SDS011;53546;52.184;5.596;2023-03-03T21:52:08;4.53;;;1.60;;
66633;SDS011;53546;52.184;5.596;2023-03-03T21:54:34;10.82;;;1.90;;
66633;SDS011;53546;52.184;5.596;2023-03-03T21:56:59;2.28;;;1.42;;
66633;SDS011;53546;52.184;5.596;2023-03-03T21:59:25;5.60;;;1.60;;
66633;SDS011;53546;52.184;5.596;2023-03-03T22:01:50;5.18;;;1.80;;
66633;SDS011;53546;52.184;5.596;2023-03-03T22:04:16;5.38;;;1.60;;
66633;SDS011;53546;52.184;5.596;2023-03-03T22:06:41;4.88;;;1.90;;
66633;SDS011;53546;52.184;5.596;2023-03-03T22:09:07;3.50;;;1.58;;
66633;SDS011;53546;52.184;5.596;2023-03-03T22:11:33;4.47;;;1.88;;
66633;SDS011;53546;52.184;5.596;2023-03-03T22:13:59;5.25;;;1.85;;
66633;SDS011;53546;52.184;5.596;2023-03-03T22:16:24;6.30;;;1.67;;
66633;SDS011;53546;52.184;5.596;2023-03-03T22:18:49;4.22;;;1.83;;
66633;SDS011;53546;52.184;5.596;2023-03-03T22:21:15;6.43;;;1.98;;
66633;SDS011;53546;52.184;5.596;2023-03-03T22:23:40;3.40;;;1.73;;
66633;SDS011;53546;52.184;5.596;2023-03-03T22:26:06;7.30;;;1.70;;
66633;SDS011;53546;52.184;5.596;2023-03-03T22:28:32;4.13;;;1.63;;
66633;SDS011;53546;52.184;5.596;2023-03-03T22:30:57;2.58;;;1.42;;
66633;SDS011;53546;52.184;5.596;2023-03-03T22:33:23;4.43;;;1.88;;
66633;SDS011;53546;52.184;5.596;2023-03-03T22:35:48;9.63;;;2.20;;
66633;SDS011;53546;52.184;5.596;2023-03-03T22:38:14;8.20;;;1.98;;
66633;SDS011;53546;52.184;5.596;2023-03-03T22:40:40;6.32;;;1.95;;
66633;SDS011;53546;52.184;5.596;2023-03-03T22:43:05;9.63;;;2.05;;
66633;SDS011;53546;52.184;5.596;2023-03-03T22:45:31;6.63;;;2.00;;
66633;SDS011;53546;52.184;5.596;2023-03-03T22:47:57;7.18;;;1.83;;
66633;SDS011;53546;52.184;5.596;2023-03-03T22:50:22;4.32;;;1.80;;
66633;SDS011;53546;52.184;5.596;2023-03-03T22:52:48;5.35;;;1.58;;
66633;SDS011;53546;52.184;5.596;2023-03-03T22:55:13;2.97;;;1.45;;
66633;SDS011;53546;52.184;5.596;2023-03-03T22:57:39;6.60;;;1.52;;